Time;durP1;ratioP1;P1;durP2;ratioP2;P2;SDS_P1;SDS_P2;PMS_P1;PMS_P2;Temp;Humidity;BMP_temperature;BMP_pressure;BME280_temperature;BME280_humidity;BME280_pressure;Samples;Min_cycle;Max_cycle;Signal;HPM_P1;HPM_P2
2022/05/07 00:01:55;;;;;;;;;7.00;7.00;;;;;17.28;49.16;101840.38;5092046;27;45097;-87
2022/05/07 00:04:21;;;;;;;;;7.00;7.00;;;;;17.68;49.23;101905.13;5091530;28;45247;-78
2022/05/07 00:06:46;;;;;;;;;8.50;8.00;;;;;17.48;48.80;101863.88;5091895;27;45161;-80
2022/05/07 00:09:11;;;;;;;;;5.50;5.50;;;;;17.57;49.04;101884.47;5091358;27;52367;-86
2022/05/07 00:11:37;;;;;;;;;7.33;6.67;;;;;17.59;49.25;101888.97;5090332;28;45087;-79
2022/05/07 00:14:02;;;;;;;;;7.50;6.75;;;;;17.59;49.89;101896.06;5092192;27;45103;-82
2022/05/07 00:19:11;;;;;;;;;9.75;8.75;;;;;17.48;50.29;101882.47;5092014;28;45180;-79
2022/05/07 00:21:37;;;;;;;;;6.50;5.50;;;;;17.47;50.32;101893.97;5091642;27;45406;-85
2022/05/07 00:24:02;;;;;;;;;6.75;6.75;;;;;17.20;50.24;101844.63;5091169;27;45090;-79
2022/05/07 00:26:28;;;;;;;;;9.75;8.75;;;;;17.42;49.80;101896.53;5091869;27;45742;-85
2022/05/07 00:28:54;;;;;;;;;8.50;8.50;;;;;17.22;49.61;101860.59;5092215;27;45043;-85
2022/05/07 00:31:20;;;;;;;;;8.25;7.75;;;;;17.32;49.90;101889.19;5090805;27;45298;-80
2022/05/07 00:33:45;;;;;;;;;6.25;6.00;;;;;17.16;50.58;101868.41;5091305;28;45300;-79
2022/05/07 00:36:10;;;;;;;;;9.33;8.00;;;;;17.21;50.47;101874.75;5090512;27;49527;-79
2022/05/07 00:38:36;;;;;;;;;11.25;10.25;;;;;17.01;50.75;101853.88;5091133;27;44944;-83
2022/05/07 00:41:01;;;;;;;;;9.25;8.00;;;;;17.17;50.92;101875.50;5091717;27;44929;-79
2022/05/07 00:43:35;;;;;;;;;9.25;8.75;;;;;17.23;50.78;101891.59;5091453;27;45080;-83
2022/05/07 00:46:00;;;;;;;;;10.00;10.00;;;;;17.14;50.98;101878.06;5090648;28;45805;-83
2022/05/07 00:48:26;;;;;;;;;9.25;9.00;;;;;17.03;51.21;101867.19;5090854;27;45192;-88
2022/05/07 00:53:37;;;;;;;;;9.00;9.00;;;;;16.95;51.24;101861.69;5090909;28;45108;-86
2022/05/07 00:56:02;;;;;;;;;11.50;9.00;;;;;17.03;51.50;101877.81;5091304;27;45167;-77
2022/05/07 00:58:28;;;;;;;;;9.75;8.00;;;;;16.93;51.56;101873.09;5091180;28;45074;-82
2022/05/07 01:00:53;;;;;;;;;11.00;11.00;;;;;16.94;51.64;101878.44;5091060;27;45056;-85
2022/05/07 01:03:19;;;;;;;;;10.75;9.00;;;;;16.81;52.13;101859.53;5090977;28;45326;-83
2022/05/07 01:05:45;;;;;;;;;12.25;10.50;;;;;16.87;51.97;101872.94;5090527;27;45433;-79
2022/05/07 01:08:12;;;;;;;;;13.75;12.50;;;;;16.85;52.33;101875.56;5091320;27;45003;-81
2022/05/07 01:10:38;;;;;;;;;11.75;11.00;;;;;16.59;52.18;101831.44;5091096;27;44727;-83
2022/05/07 01:13:04;;;;;;;;;10.75;10.50;;;;;16.81;52.38;101876.34;5091190;27;45258;-83
2022/05/07 01:15:30;;;;;;;;;11.25;10.50;;;;;16.67;52.79;101861.75;5090070;27;45719;-86
2022/05/07 01:17:56;;;;;;;;;11.00;9.00;;;;;16.75;52.97;101873.53;5090486;27;45504;-87
2022/05/07 01:20:21;;;;;;;;;12.25;11.75;;;;;16.72;52.97;101878.75;5090494;27;45037;-81
2022/05/07 01:22:47;;;;;;;;;11.00;10.75;;;;;16.61;52.99;101858.94;5090985;27;45357;-80
2022/05/07 01:25:12;;;;;;;;;12.50;12.00;;;;;16.55;53.04;101857.03;5090431;28;45550;-79
2022/05/07 01:27:38;;;;;;;;;11.50;11.00;;;;;16.62;53.13;101877.56;5090583;28;44937;-83
2022/05/07 01:30:04;;;;;;;;;12.75;12.75;;;;;16.59;53.33;101873.91;5090814;27;45395;-87
2022/05/07 01:32:29;;;;;;;;;9.25;8.00;;;;;16.46;53.67;101865.63;5089968;27;45209;-77
2022/05/07 01:34:55;;;;;;;;;13.00;13.00;;;;;16.42;53.71;101862.81;5089798;28;45942;-84
2022/05/07 01:37:20;;;;;;;;;16.75;16.00;;;;;16.49;53.46;101881.59;5090191;28;45313;-87
2022/05/07 01:39:46;;;;;;;;;12.00;11.00;;;;;16.38;53.88;101867.13;5090803;28;45049;-81
2022/05/07 01:42:12;;;;;;;;;14.00;13.00;;;;;16.25;53.84;101857.00;5090517;28;45147;-80
2022/05/07 01:44:38;;;;;;;;;11.75;11.00;;;;;16.39;54.17;101876.88;5089539;27;45082;-78
2022/05/07 01:49:48;;;;;;;;;15.00;14.00;;;;;16.15;54.12;101836.38;5090141;28;44999;-84
2022/05/07 01:52:14;;;;;;;;;14.00;12.50;;;;;16.32;54.35;101866.06;5089922;27;45257;-86
2022/05/07 01:54:39;;;;;;;;;13.00;13.00;;;;;16.33;54.27;101867.88;5089833;27;45624;-83
2022/05/07 01:57:05;;;;;;;;;14.50;12.50;;;;;16.20;54.07;101856.88;5090189;28;45027;-84
2022/05/07 01:59:30;;;;;;;;;16.00;15.00;;;;;16.17;54.41;101855.91;5089163;28;45103;-83
2022/05/07 02:01:56;;;;;;;;;15.25;15.00;;;;;16.15;54.54;101849.63;5089837;27;45055;-77
2022/05/07 02:04:21;;;;;;;;;11.50;9.75;;;;;16.11;54.48;101851.34;5089758;28;45193;-82
2022/05/07 02:06:47;;;;;;;;;15.00;15.00;;;;;15.99;54.25;101825.31;5104640;27;45125;-85
2022/05/07 02:09:12;;;;;;;;;13.00;12.75;;;;;16.20;54.45;101864.84;5105863;27;45492;-80
2022/05/07 02:11:37;;;;;;;;;15.00;14.50;;;;;16.06;54.60;101839.69;5089353;28;45194;-86
2022/05/07 02:14:03;;;;;;;;;12.75;11.75;;;;;16.16;54.61;101862.06;5089363;27;45340;-78
2022/05/07 02:16:28;;;;;;;;;12.67;12.33;;;;;15.99;54.27;101830.63;5088944;27;45032;-78
2022/05/07 02:18:53;;;;;;;;;13.75;13.75;;;;;15.83;54.27;101803.63;5090399;27;45101;-79
2022/05/07 02:21:19;;;;;;;;;11.67;11.33;;;;;16.14;54.32;101855.81;5089345;27;45093;-80
2022/05/07 02:23:44;;;;;;;;;13.75;13.00;;;;;15.89;54.13;101820.59;5089536;27;45643;-78
2022/05/07 02:26:09;;;;;;;;;12.00;11.25;;;;;16.09;54.54;101863.63;5089792;27;45183;-85
2022/05/07 02:28:34;;;;;;;;;12.50;12.25;;;;;15.96;54.42;101848.22;5089581;27;45235;-86
2022/05/07 02:31:00;;;;;;;;;11.33;10.67;;;;;15.96;54.52;101857.06;5089033;27;45042;-77
2022/05/07 02:33:25;;;;;;;;;12.75;11.00;;;;;15.97;54.69;101853.56;5089075;28;45639;-84
2022/05/07 02:35:50;;;;;;;;;13.00;11.67;;;;;15.95;54.79;101852.59;5089572;27;46579;-80
2022/05/07 02:38:16;;;;;;;;;12.25;12.25;;;;;15.86;54.73;101839.09;5089396;27;45044;-85
2022/05/07 02:43:25;;;;;;;;;11.75;11.75;;;;;15.91;54.79;101858.69;5089467;27;45422;-88
2022/05/07 02:45:50;;;;;;;;;12.00;11.00;;;;;15.89;55.00;101862.13;5088937;27;49320;-79
2022/05/07 02:48:16;;;;;;;;;12.25;11.75;;;;;15.83;55.26;101860.19;5088981;27;45028;-76
2022/05/07 02:50:41;;;;;;;;;16.25;15.25;;;;;15.70;55.44;101837.69;5089380;27;45164;-81
2022/05/07 02:53:06;;;;;;;;;12.25;11.75;;;;;15.70;55.32;101847.41;5089332;28;45316;-78
2022/05/07 02:55:32;;;;;;;;;15.75;14.50;;;;;15.75;55.25;101856.38;5088752;28;44984;-78
2022/05/07 02:57:57;;;;;;;;;14.00;13.00;;;;;15.73;55.42;101863.41;5089525;28;45110;-81
2022/05/07 03:00:23;;;;;;;;;11.67;11.67;;;;;15.38;55.48;101801.31;5088457;28;45007;-82
2022/05/07 03:02:49;;;;;;;;;12.50;12.50;;;;;15.70;55.96;101860.66;5088774;27;45589;-83
2022/05/07 03:05:14;;;;;;;;;14.00;12.50;;;;;15.64;55.81;101858.72;5088864;27;44986;-81
2022/05/07 03:07:39;;;;;;;;;12.00;10.50;;;;;15.46;56.08;101835.13;5089022;27;45522;-85
2022/05/07 03:10:05;;;;;;;;;12.67;12.67;;;;;15.52;56.06;101849.41;5088722;28;45103;-84
2022/05/07 03:12:30;;;;;;;;;16.75;13.00;;;;;15.37;56.19;101826.91;5088567;27;45604;-82
2022/05/07 03:20:08;;;;;;;;;14.00;12.50;;;;;15.28;56.80;101818.66;5025562;28;46711;-83
2022/05/07 03:22:33;;;;;;;;;13.75;13.00;;;;;15.46;56.77;101848.38;5029889;28;45921;-83
2022/05/07 03:24:58;;;;;;;;;15.25;14.25;;;;;15.51;57.03;101858.22;5028671;28;45351;-83
2022/05/07 03:27:24;;;;;;;;;15.67;14.67;;;;;15.35;56.81;101830.34;5030223;28;45530;-84
2022/05/07 03:29:49;;;;;;;;;11.25;10.50;;;;;15.40;57.03;101837.59;5027811;28;45719;-83
2022/05/07 03:32:14;;;;;;;;;15.00;13.33;;;;;15.38;56.81;101834.00;5027397;28;45432;-83
2022/05/07 03:34:40;;;;;;;;;14.67;14.67;;;;;15.24;57.08;101803.53;5028264;28;45698;-84
2022/05/07 03:37:06;;;;;;;;;15.00;12.25;;;;;15.36;57.02;101829.50;5028943;28;45523;-84
2022/05/07 03:39:32;;;;;;;;;12.75;12.50;;;;;15.14;56.71;101790.81;5027762;28;45475;-83
2022/05/07 03:41:57;;;;;;;;;14.00;14.00;;;;;15.33;57.08;101827.66;5027320;28;47092;-83
2022/05/07 03:44:23;;;;;;;;;12.00;12.00;;;;;15.38;56.86;101831.34;5029427;28;45371;-83
2022/05/07 03:46:48;;;;;;;;;11.00;11.00;;;;;15.41;57.15;101831.44;5028403;28;45671;-83
2022/05/07 03:49:14;;;;;;;;;16.00;14.00;;;;;15.55;56.79;101847.78;5029079;28;45558;-85
2022/05/07 03:54:23;;;;;;;;;17.50;14.25;;;;;15.37;57.00;101825.97;5028654;28;45749;-84
2022/05/07 03:56:48;;;;;;;;;14.00;12.00;;;;;15.27;57.29;101805.34;5028946;28;45485;-83
2022/05/07 03:59:14;;;;;;;;;15.00;13.33;;;;;15.18;57.42;101804.22;5028995;28;45484;-85
2022/05/07 04:01:39;;;;;;;;;15.67;14.33;;;;;15.11;57.43;101788.06;5027791;28;46021;-83
2022/05/07 04:04:04;;;;;;;;;17.00;16.25;;;;;15.07;57.30;101789.72;5027335;28;45727;-84
2022/05/07 04:06:30;;;;;;;;;16.33;14.00;;;;;15.13;57.76;101794.34;5029473;28;45460;-83
2022/05/07 04:08:55;;;;;;;;;15.50;14.00;;;;;15.09;57.50;101781.84;5028424;28;45664;-84
2022/05/07 04:11:20;;;;;;;;;17.00;15.00;;;;;15.04;57.78;101773.75;5030719;28;47367;-83
2022/05/07 04:13:45;;;;;;;;;14.25;14.00;;;;;14.89;57.93;101749.41;5032265;28;45494;-85
2022/05/07 04:16:11;;;;;;;;;15.75;14.25;;;;;15.05;58.03;101783.47;5031650;28;45449;-84
2022/05/07 04:18:36;;;;;;;;;14.00;14.00;;;;;14.97;57.91;101777.00;5031895;28;45342;-83
2022/05/07 04:21:02;;;;;;;;;12.00;11.00;;;;;15.13;58.02;101813.75;5031685;28;46042;-83
2022/05/07 04:23:30;;;;;;;;;13.75;13.25;;;;;14.93;58.08;101765.44;5030652;28;45405;-83
2022/05/07 04:25:58;;;;;;;;;15.25;15.00;;;;;14.93;58.55;101770.75;5031947;28;45512;-83
2022/05/07 04:28:23;;;;;;;;;17.75;15.25;;;;;15.19;58.86;101813.97;5032623;28;45576;-84
2022/05/07 04:30:49;;;;;;;;;15.75;14.00;;;;;15.06;58.84;101792.31;5031308;28;46528;-85
2022/05/07 04:33:17;;;;;;;;;14.50;13.25;;;;;14.81;58.67;101751.78;5031002;28;45496;-85
2022/05/07 04:35:42;;;;;;;;;14.75;14.00;;;;;15.31;58.53;101837.28;5032329;28;45497;-85
2022/05/07 04:38:08;;;;;;;;;13.00;13.00;;;;;15.31;58.77;101839.94;5029935;28;45804;-83
2022/05/07 04:40:33;;;;;;;;;15.50;14.75;;;;;15.19;58.96;101815.72;5032181;28;45485;-84
2022/05/07 04:42:58;;;;;;;;;15.25;15.25;;;;;14.95;58.85;101776.97;5031320;28;45519;-84
2022/05/07 04:45:25;;;;;;;;;17.25;16.75;;;;;15.29;59.06;101839.00;5030543;28;45611;-82
2022/05/07 04:47:51;;;;;;;;;16.00;14.25;;;;;15.08;58.93;101802.13;5030807;28;45580;-85
2022/05/07 04:50:17;;;;;;;;;14.25;13.50;;;;;14.86;59.01;101763.44;5030212;28;47249;-84
2022/05/07 04:52:42;;;;;;;;;16.50;15.50;;;;;15.22;59.12;101824.66;5031001;28;45359;-84
2022/05/07 04:55:07;;;;;;;;;17.00;15.33;;;;;14.88;59.05;101766.16;5046566;28;45331;-84
2022/05/07 04:57:33;;;;;;;;;17.25;14.75;;;;;15.31;59.02;101837.28;5031888;28;45521;-85
2022/05/07 04:59:59;;;;;;;;;16.75;14.75;;;;;14.90;59.19;101765.34;5030941;28;45501;-85
2022/05/07 05:02:25;;;;;;;;;17.00;15.75;;;;;15.06;58.99;101789.66;5029681;28;45455;-84
2022/05/07 05:04:50;;;;;;;;;16.50;14.00;;;;;15.38;59.00;101835.75;5031457;28;45613;-85
2022/05/07 05:07:16;;;;;;;;;16.50;15.25;;;;;15.05;59.08;101783.47;5029717;28;45423;-83
2022/05/07 05:09:41;;;;;;;;;17.00;16.00;;;;;14.99;59.15;101771.78;5032088;28;45657;-86
2022/05/07 05:12:07;;;;;;;;;14.50;14.25;;;;;15.20;59.42;101807.81;5029512;28;45676;-85
2022/05/07 05:17:16;;;;;;;;;22.25;19.75;;;;;15.08;59.28;101790.63;5030901;28;45811;-84
2022/05/07 05:19:41;;;;;;;;;16.75;15.75;;;;;14.94;59.14;101777.81;5031087;28;46128;-84
2022/05/07 05:22:07;;;;;;;;;18.25;16.75;;;;;14.75;59.23;101737.47;5029520;28;45557;-85
2022/05/07 05:24:32;;;;;;;;;18.50;17.50;;;;;14.83;59.45;101766.00;5031713;28;45652;-85
2022/05/07 05:26:58;;;;;;;;;16.00;14.33;;;;;15.18;59.30;101830.69;5031126;28;45303;-82
2022/05/07 05:29:23;;;;;;;;;19.25;17.25;;;;;15.16;59.39;101836.78;5030904;28;46010;-85
2022/05/07 05:31:49;;;;;;;;;18.00;16.25;;;;;15.30;59.48;101845.19;5028383;28;45521;-83
2022/05/07 05:34:14;;;;;;;;;21.00;19.75;;;;;15.09;59.71;101811.84;5030809;28;45403;-83
2022/05/07 05:36:39;;;;;;;;;16.00;15.00;;;;;15.10;59.48;101802.16;5029090;28;45384;-83
2022/05/07 05:39:07;;;;;;;;;17.00;16.25;;;;;14.80;59.73;101750.00;5031000;28;46850;-83
2022/05/07 05:41:33;;;;;;;;;17.50;15.00;;;;;15.31;59.88;101836.38;5031240;28;45844;-83
2022/05/07 05:43:59;;;;;;;;;23.25;19.00;;;;;15.23;59.96;101823.81;5030643;28;45530;-83
2022/05/07 05:46:24;;;;;;;;;16.50;15.25;;;;;15.01;59.96;101781.56;5030103;28;45397;-84
2022/05/07 05:48:50;;;;;;;;;19.75;17.75;;;;;15.35;59.90;101839.19;5030178;28;45362;-83
2022/05/07 05:51:15;;;;;;;;;23.50;19.75;;;;;15.12;60.13;101785.50;5030507;28;45511;-83
2022/05/07 05:53:40;;;;;;;;;22.00;19.25;;;;;15.43;60.02;101845.66;5028613;28;45428;-83
2022/05/07 05:56:07;;;;;;;;;20.00;17.75;;;;;15.27;59.62;101802.69;5030385;28;45509;-83
2022/05/07 05:58:35;;;;;;;;;17.75;17.00;;;;;15.19;59.78;101782.19;5031085;28;46340;-83
2022/05/07 06:01:03;;;;;;;;;17.50;15.00;;;;;15.10;59.73;101767.75;5029540;28;45846;-84
2022/05/07 06:03:28;;;;;;;;;23.75;22.25;;;;;15.23;59.74;101786.72;5030472;28;45385;-82
2022/05/07 06:05:53;;;;;;;;;18.00;17.25;;;;;15.37;59.52;101811.03;5030269;28;45596;-85
2022/05/07 06:08:19;;;;;;;;;17.67;16.33;;;;;15.24;59.84;101766.44;5030218;28;46682;-85
2022/05/07 06:10:44;;;;;;;;;22.75;21.25;;;;;15.17;59.72;101743.25;5030242;28;45513;-83
2022/05/07 06:13:09;;;;;;;;;21.00;20.00;;;;;15.54;59.33;101808.00;5030136;28;45691;-82
2022/05/07 06:15:37;;;;;;;;;21.00;18.25;;;;;15.73;59.57;101843.09;5028880;28;45799;-83
2022/05/07 06:18:02;;;;;;;;;18.00;17.75;;;;;15.64;59.62;101811.00;5027261;28;47267;-84
2022/05/07 06:20:27;;;;;;;;;18.50;18.00;;;;;15.46;59.21;101760.94;5030451;28;45365;-83
2022/05/07 06:22:57;;;;;;;;;23.50;21.25;;;;;15.61;59.40;101768.47;5029577;28;45470;-83
2022/05/07 06:28:07;;;;;;;;;19.50;18.75;;;;;15.51;59.06;101724.00;5029474;28;45552;-84
2022/05/07 06:30:35;;;;;;;;;18.00;16.75;;;;;16.05;59.07;101821.06;5028231;28;45425;-83
2022/05/07 06:33:00;;;;;;;;;19.00;18.00;;;;;16.12;59.14;101839.88;5031576;28;45353;-83
2022/05/07 06:35:26;;;;;;;;;18.50;17.75;;;;;15.85;58.89;101791.31;5030328;28;45460;-82
2022/05/07 06:37:51;;;;;;;;;22.50;19.25;;;;;15.81;58.94;101794.72;5029064;28;45633;-80
2022/05/07 06:40:16;;;;;;;;;21.00;19.67;;;;;15.77;59.00;101788.44;5028629;28;45431;-84
2022/05/07 06:42:43;;;;;;;;;20.33;19.67;;;;;15.99;59.27;101838.59;5029877;28;45472;-83
2022/05/07 06:45:09;;;;;;;;;19.75;18.75;;;;;15.85;59.35;101826.66;5029511;28;45438;-83
2022/05/07 06:47:34;;;;;;;;;20.75;19.75;;;;;16.24;59.16;101868.47;5027704;28;47055;-84
2022/05/07 06:50:00;;;;;;;;;18.00;18.00;;;;;15.99;59.09;101825.31;5029509;28;45374;-83
2022/05/07 06:52:27;;;;;;;;;21.50;18.75;;;;;16.27;58.95;101875.66;5029876;28;45594;-83
2022/05/07 06:54:52;;;;;;;;;22.00;21.25;;;;;15.85;59.25;101805.44;5029563;28;45460;-83
2022/05/07 06:57:18;;;;;;;;;21.50;18.75;;;;;16.01;59.31;101838.66;5028084;28;46971;-82
2022/05/07 06:59:43;;;;;;;;;19.75;18.50;;;;;15.91;59.17;101818.91;5029399;28;45346;-83
2022/05/07 07:02:09;;;;;;;;;19.25;18.25;;;;;16.20;59.15;101856.88;5031209;28;45380;-83
2022/05/07 07:04:34;;;;;;;;;19.75;19.25;;;;;15.80;59.17;101790.25;5029891;28;45397;-83
2022/05/07 07:07:00;;;;;;;;;20.00;19.00;;;;;16.22;59.31;101854.28;5028484;28;54226;-83
2022/05/07 07:09:25;;;;;;;;;19.75;19.00;;;;;15.93;58.86;101803.94;5029791;28;45405;-83
2022/05/07 07:11:50;;;;;;;;;24.67;21.33;;;;;16.44;58.87;101883.22;5029029;28;48055;-83
2022/05/07 07:14:16;;;;;;;;;22.00;19.50;;;;;16.43;59.55;101875.22;5029074;28;45480;-83
2022/05/07 07:16:41;;;;;;;;;23.75;23.00;;;;;16.52;58.67;101859.56;5030754;28;46217;-83
2022/05/07 07:19:07;;;;;;;;;20.75;19.25;;;;;16.79;58.69;101880.69;5027466;28;45840;-83
2022/05/07 07:21:32;;;;;;;;;20.75;20.00;;;;;16.73;58.92;101849.56;5027679;28;46079;-83
2022/05/07 07:23:59;;;;;;;;;23.00;22.00;;;;;16.11;58.58;101728.44;5029089;28;45497;-84
2022/05/07 07:26:25;;;;;;;;;22.00;20.50;;;;;17.02;58.02;101890.19;5029490;28;45596;-83
2022/05/07 07:28:50;;;;;;;;;23.00;21.00;;;;;16.54;58.29;101798.56;5028934;28;45630;-83
2022/05/07 07:31:16;;;;;;;;;23.75;22.50;;;;;17.10;57.77;101884.19;5028912;28;45377;-84
2022/05/07 07:33:42;;;;;;;;;24.25;20.25;;;;;17.03;57.73;101876.03;5030100;28;45685;-84
2022/05/07 07:36:09;;;;;;;;;15.75;15.75;;;;;17.12;57.96;101885.13;5028297;28;46540;-83
2022/05/07 07:38:35;;;;;;;;;25.50;22.75;;;;;16.79;57.60;101832.91;5029248;28;45413;-83
2022/05/07 07:41:02;;;;;;;;;19.75;18.25;;;;;16.99;58.05;101846.69;5029007;28;45393;-83
2022/05/07 07:43:28;;;;;;;;;19.00;18.00;;;;;17.24;57.71;101889.00;5027722;28;45607;-83
2022/05/07 07:48:39;;;;;;;;;22.25;19.50;;;;;17.17;57.36;101884.38;5032378;28;45975;-83
2022/05/07 07:51:06;;;;;;;;;23.25;22.00;;;;;17.28;57.70;101885.53;5031994;28;45578;-84
2022/05/07 07:53:32;;;;;;;;;20.25;19.75;;;;;17.31;57.55;101886.50;5032671;28;45648;-83
2022/05/07 07:55:57;;;;;;;;;19.75;18.50;;;;;16.74;57.46;101778.78;5030638;28;47280;-84
2022/05/07 07:58:23;;;;;;;;;19.75;19.00;;;;;16.85;57.60;101789.72;5030751;28;45561;-83
2022/05/07 08:00:49;;;;;;;;;20.00;17.25;;;;;17.09;57.20;101834.56;5032183;28;45466;-84
2022/05/07 08:03:17;;;;;;;;;21.25;21.00;;;;;17.37;57.44;101870.69;5030342;28;45483;-83
2022/05/07 08:05:44;;;;;;;;;19.00;18.75;;;;;17.34;57.00;101882.16;5030379;28;48349;-84
2022/05/07 08:13:44;;;;;;;;;20.25;18.75;;;;;16.75;57.23;101794.78;5031976;28;45394;-82
2022/05/07 08:16:10;;;;;;;;;19.50;18.25;;;;;17.03;57.43;101828.22;5031507;28;45633;-83
2022/05/07 08:18:41;;;;;;;;;21.75;20.75;;;;;17.37;57.33;101868.94;5031602;28;45396;-83
2022/05/07 08:21:07;;;;;;;;;18.25;17.25;;;;;17.02;57.02;101810.50;5031697;28;45291;-83
2022/05/07 08:23:33;;;;;;;;;19.00;17.00;;;;;17.17;57.25;101854.25;5032544;28;45361;-84
2022/05/07 08:25:58;;;;;;;;;20.50;19.00;;;;;17.27;57.45;101864.25;5031815;28;45867;-84
2022/05/07 08:28:24;;;;;;;;;19.00;16.75;;;;;17.14;57.64;101844.47;5031754;28;45509;-83
2022/05/07 08:30:50;;;;;;;;;17.75;17.50;;;;;17.32;57.68;101865.28;5031604;28;45585;-82
2022/05/07 08:33:17;;;;;;;;;22.00;20.00;;;;;17.43;57.48;101868.19;5030951;28;45667;-82
2022/05/07 08:35:43;;;;;;;;;20.25;17.25;;;;;17.20;57.20;101817.16;5029724;28;47270;-83
2022/05/07 08:38:08;;;;;;;;;16.25;16.00;;;;;17.27;57.68;101814.66;5030275;28;45317;-84
2022/05/07 08:40:34;;;;;;;;;17.00;17.00;;;;;17.57;57.26;101855.22;5030839;28;45435;-83
2022/05/07 08:43:00;;;;;;;;;18.67;17.67;;;;;17.85;57.00;101875.44;5031519;28;45546;-83
2022/05/07 08:45:25;;;;;;;;;18.75;17.00;;;;;17.98;56.95;101875.75;5032012;28;46507;-84
2022/05/07 08:47:53;;;;;;;;;19.25;18.25;;;;;17.44;56.71;101767.25;5030470;28;45839;-84
2022/05/07 08:50:19;;;;;;;;;19.75;17.75;;;;;17.84;56.22;101805.38;5031315;28;45367;-83
2022/05/07 08:52:46;;;;;;;;;17.25;16.00;;;;;17.76;56.38;101780.38;5031447;28;45489;-83
2022/05/07 08:55:21;;;;;;;;;17.00;16.25;;;;;18.00;56.54;101822.56;5031211;28;45509;-83
2022/05/07 08:57:48;;;;;;;;;21.50;19.00;;;;;17.81;55.79;101792.00;5031004;28;45414;-83
2022/05/07 09:00:16;;;;;;;;;21.75;18.75;;;;;17.94;55.98;101833.09;5030172;28;45467;-83
2022/05/07 09:02:59;;;;;;;;;18.50;17.50;;;;;17.57;56.23;101741.81;5030774;28;45521;-82
2022/05/07 09:05:37;;;;;;;;;21.00;19.50;;;;;18.34;56.35;101840.13;5029671;28;47130;-83
2022/05/07 09:08:05;;;;;;;;;17.50;17.00;;;;;18.47;55.72;101804.00;5029703;28;45976;-83
2022/05/07 09:10:32;;;;;;;;;20.75;19.25;;;;;18.56;54.62;101785.53;5031578;28;45566;-83
2022/05/07 09:13:14;;;;;;;;;17.75;17.75;;;;;19.14;54.39;101863.88;5030915;28;45686;-84
2022/05/07 09:15:57;;;;;;;;;21.50;16.25;;;;;19.14;54.26;101861.19;5029344;28;47335;-83
2022/05/07 09:18:24;;;;;;;;;20.75;17.25;;;;;18.91;54.15;101820.81;5030825;28;45839;-83
2022/05/07 09:21:16;;;;;;;;;17.25;16.00;;;;;18.50;54.15;101753.47;5029134;28;45403;-83
2022/05/07 09:24:01;;;;;;;;;16.75;16.25;;;;;18.76;54.32;101812.56;5031525;28;45553;-83
2022/05/07 09:26:26;;;;;;;;;18.75;17.25;;;;;19.00;54.36;101862.72;5030778;28;45437;-83
2022/05/07 09:28:51;;;;;;;;;17.25;15.75;;;;;18.83;54.78;101845.56;5030756;28;45516;-83
2022/05/07 09:31:31;;;;;;;;;24.00;19.25;;;;;18.91;54.58;101858.13;5028800;28;45390;-83
2022/05/07 09:35:47;;;;;;;;;22.00;19.00;;;;;18.88;54.73;101851.88;5033277;28;45522;-81
2022/05/07 09:36:45;;;;;;;;;17.50;17.00;;;;;18.80;54.84;101859.69;5030491;28;46030;-83
2022/05/07 09:39:17;;;;;;;;;20.75;19.25;;;;;18.76;54.71;101860.50;5030617;28;45683;-83
2022/05/07 09:41:43;;;;;;;;;21.50;19.75;;;;;18.73;54.95;101855.13;5030489;28;45434;-81
2022/05/07 09:44:10;;;;;;;;;16.75;16.00;;;;;18.19;54.84;101774.19;5028986;28;45459;-83
2022/05/07 09:46:35;;;;;;;;;22.75;20.00;;;;;18.50;55.34;101831.59;5030066;28;45540;-84
2022/05/07 09:49:03;;;;;;;;;20.75;19.25;;;;;18.55;55.05;101843.22;5029810;28;45500;-84
2022/05/07 09:51:30;;;;;;;;;19.50;18.50;;;;;18.62;55.13;101848.66;5029619;28;45426;-84
2022/05/07 09:59:25;;;;;;;;;20.00;19.00;;;;;18.86;54.74;101811.84;5030926;28;46072;-80
2022/05/07 10:01:51;;;;;;;;;24.50;20.50;;;;;19.14;54.53;101842.53;5028145;28;45529;-80
2022/05/07 10:04:54;;;;;;;;;21.75;20.75;;;;;19.29;54.27;101849.91;5030272;28;45418;-81
2022/05/07 10:07:40;;;;;;;;;21.50;21.50;;;;;19.55;54.87;101844.97;5028261;28;48173;-84
2022/05/07 10:10:17;;;;;;;;;16.75;16.75;;;;;19.74;53.83;101844.41;5030251;28;45966;-81
2022/05/07 10:12:47;;;;;;;;;18.50;17.75;;;;;19.56;53.54;101796.13;5028331;28;45617;-83
2022/05/07 10:15:19;;;;;;;;;22.75;17.00;;;;;19.78;53.82;101830.25;5028935;28;45524;-81
2022/05/07 10:17:56;;;;;;;;;23.25;17.50;;;;;19.72;53.49;101794.59;5030854;28;46865;-80
2022/05/07 10:20:23;;;;;;;;;18.50;17.75;;;;;20.08;53.19;101827.09;5029109;28;45776;-83
2022/05/07 10:22:55;;;;;;;;;22.25;18.00;;;;;20.19;52.88;101815.66;5028541;28;45393;-82
2022/05/07 10:25:20;;;;;;;;;20.25;19.00;;;;;20.20;52.78;101778.31;5029850;28;45612;-80
2022/05/07 10:27:49;;;;;;;;;19.50;17.25;;;;;20.54;52.37;101814.34;5029918;28;45501;-83
2022/05/07 10:30:16;;;;;;;;;20.75;19.00;;;;;20.59;51.72;101788.56;5030496;28;46123;-84
2022/05/07 10:32:46;;;;;;;;;17.25;16.75;;;;;20.97;51.55;101827.22;5028954;28;45461;-85
2022/05/07 10:35:12;;;;;;;;;18.25;17.25;;;;;20.82;51.57;101793.22;5028677;28;45574;-82
2022/05/07 10:37:41;;;;;;;;;18.50;17.00;;;;;21.00;51.44;101793.41;5030196;28;46319;-84
2022/05/07 10:40:11;;;;;;;;;15.25;14.50;;;;;21.34;50.81;101829.34;5029666;28;46312;-84
2022/05/07 10:42:39;;;;;;;;;20.00;19.25;;;;;21.42;50.27;101801.75;5032600;28;45391;-81
2022/05/07 10:45:06;;;;;;;;;16.50;14.50;;;;;21.67;49.72;101810.84;5028344;28;45569;-81
2022/05/07 10:47:31;;;;;;;;;15.75;15.50;;;;;21.85;50.09;101833.25;5031652;28;46145;-80
2022/05/07 10:50:06;;;;;;;;;9.00;9.00;;;;;22.04;48.49;101817.28;5029667;28;45535;-83
2022/05/07 10:52:33;;;;;;;;;15.00;13.25;;;;;21.76;48.71;101746.66;5028782;28;45498;-84
2022/05/07 10:55:13;;;;;;;;;16.25;14.50;;;;;22.18;48.75;101804.00;5027830;28;45587;-80
2022/05/07 10:57:46;;;;;;;;;18.00;16.25;;;;;22.27;47.78;101798.69;5028268;28;47298;-81
2022/05/07 11:00:20;;;;;;;;;16.50;15.75;;;;;22.47;48.45;101814.81;5029657;28;45917;-83
2022/05/07 11:02:48;;;;;;;;;16.00;13.75;;;;;22.42;47.94;101787.13;5028167;28;45393;-84
2022/05/07 11:05:15;;;;;;;;;12.75;11.75;;;;;22.75;47.91;101803.22;5029623;28;45347;-83
2022/05/07 11:07:41;;;;;;;;;13.75;13.00;;;;;22.61;47.76;101762.13;5029369;28;45504;-81
2022/05/07 11:10:07;;;;;;;;;15.25;14.25;;;;;22.87;47.38;101794.31;5028970;28;45716;-81
2022/05/07 11:12:35;;;;;;;;;15.00;12.25;;;;;22.54;47.43;101739.78;5029719;28;45378;-81
2022/05/07 11:15:02;;;;;;;;;12.75;12.00;;;;;22.67;46.72;101768.41;5029634;28;45667;-81
2022/05/07 11:17:33;;;;;;;;;14.50;13.75;;;;;22.61;47.11;101752.31;5028693;28;46052;-81
2022/05/07 11:19:59;;;;;;;;;17.00;15.50;;;;;22.90;46.36;101786.31;5027842;28;45822;-81
2022/05/07 11:22:30;;;;;;;;;14.00;12.75;;;;;22.79;45.88;101761.25;5028192;28;45466;-81
2022/05/07 11:24:57;;;;;;;;;12.00;11.00;;;;;22.73;46.22;101739.81;5028800;28;45362;-81
2022/05/07 11:27:26;;;;;;;;;11.75;11.00;;;;;23.03;45.77;101806.88;5029539;28;45643;-81
2022/05/07 11:29:53;;;;;;;;;10.50;9.75;;;;;22.72;45.78;101743.38;5027507;28;45904;-81
2022/05/07 11:32:19;;;;;;;;;13.75;13.25;;;;;22.86;45.60;101776.47;5026720;28;45568;-81
2022/05/07 11:34:44;;;;;;;;;17.25;16.50;;;;;23.02;45.96;101791.69;5029299;28;45764;-81
2022/05/07 11:37:17;;;;;;;;;39.00;34.25;;;;;23.16;45.34;101789.00;5028665;28;46592;-83
2022/05/07 11:39:45;;;;;;;;;16.50;15.25;;;;;23.29;45.25;101788.06;5028888;28;45549;-83
2022/05/07 11:42:11;;;;;;;;;12.50;11.50;;;;;23.29;44.45;101779.13;5029100;28;45500;-83
2022/05/07 11:47:22;;;;;;;;;14.00;13.75;;;;;23.24;44.72;101744.25;5030932;28;45500;-83
2022/05/07 11:50:04;;;;;;;;;20.75;17.75;;;;;23.57;44.21;101785.34;5029379;28;46192;-84